Time;durP1;ratioP1;P1;durP2;ratioP2;P2;SDS_P1;SDS_P2;PMS_P1;PMS_P2;Temp;Humidity;BMP_temperature;BMP_pressure;BME280_temperature;BME280_humidity;BME280_pressure;Samples;Min_cycle;Max_cycle;Signal;HPM_P1;HPM_P2
2021/05/25 00:01:57;;;;;;;2.22;1.23;;;13.40;73.10;;;;;;5082546;28;20037;-45
2021/05/25 00:04:23;;;;;;;1.13;0.70;;;13.30;72.40;;;;;;5082428;28;20102;-45
2021/05/25 00:06:49;;;;;;;1.05;0.68;;;13.20;72.10;;;;;;5081402;28;20082;-49
2021/05/25 00:09:14;;;;;;;3.63;0.80;;;13.20;71.40;;;;;;5084283;28;20024;-45
2021/05/25 00:11:40;;;;;;;2.42;0.77;;;13.20;71.10;;;;;;5082778;28;20047;-45
2021/05/25 00:14:06;;;;;;;2.17;0.88;;;13.10;70.90;;;;;;5082605;28;20040;-45
2021/05/25 00:16:32;;;;;;;2.40;1.00;;;13.10;71.10;;;;;;5082359;28;20082;-46
2021/05/25 00:18:58;;;;;;;2.53;0.90;;;13.00;70.90;;;;;;5082119;28;20028;-44
2021/05/25 00:21:24;;;;;;;2.83;0.80;;;12.90;70.60;;;;;;5082193;28;20055;-45
2021/05/25 00:23:49;;;;;;;1.55;0.75;;;12.90;70.40;;;;;;5084255;28;20036;-44
2021/05/25 00:26:15;;;;;;;2.67;0.80;;;12.90;70.70;;;;;;5082457;28;20104;-45
2021/05/25 00:28:41;;;;;;;2.25;0.85;;;13.00;70.40;;;;;;5082309;28;20039;-46
2021/05/25 00:31:07;;;;;;;1.83;0.73;;;13.00;70.60;;;;;;5082438;28;20028;-44
2021/05/25 00:33:32;;;;;;;2.63;0.80;;;13.00;70.90;;;;;;5082032;28;20035;-45
2021/05/25 00:35:58;;;;;;;1.67;0.82;;;13.00;70.80;;;;;;5084045;28;20028;-46
2021/05/25 00:38:24;;;;;;;1.70;0.70;;;13.00;71.20;;;;;;5082366;28;20078;-46
2021/05/25 00:40:49;;;;;;;1.40;0.80;;;13.10;70.80;;;;;;5081948;28;20044;-45
2021/05/25 00:43:15;;;;;;;6.90;1.10;;;13.00;70.60;;;;;;5082085;28;20033;-45
2021/05/25 00:45:41;;;;;;;2.45;0.80;;;13.10;71.00;;;;;;5083221;28;20060;-45
2021/05/25 00:48:07;;;;;;;2.10;0.77;;;13.10;71.10;;;;;;5087450;28;20036;-45
2021/05/25 00:50:32;;;;;;;1.75;0.88;;;13.10;70.90;;;;;;5085094;28;20033;-46
2021/05/25 00:53:02;;;;;;;2.97;0.77;;;13.10;70.90;;;;;;5085589;28;20032;-45
2021/05/25 00:55:31;;;;;;;2.05;0.60;;;13.00;70.80;;;;;;5085587;28;20138;-45
2021/05/25 00:57:57;;;;;;;2.20;0.90;;;13.10;70.70;;;;;;5084635;28;20095;-45
2021/05/25 01:00:46;;;;;;;1.17;0.60;;;13.00;70.50;;;;;;5085837;28;20033;-46
2021/05/25 01:03:14;;;;;;;1.35;0.60;;;13.00;70.40;;;;;;5085370;28;20135;-46
2021/05/25 01:05:40;;;;;;;5.32;0.80;;;12.90;70.10;;;;;;5085593;28;20035;-48
2021/05/25 01:08:07;;;;;;;2.53;0.80;;;12.90;70.20;;;;;;5085673;28;20033;-46
2021/05/25 01:10:36;;;;;;;2.30;0.70;;;12.90;70.00;;;;;;5084434;28;20089;-46
2021/05/25 01:13:08;;;;;;;1.75;0.95;;;12.80;69.90;;;;;;5085243;28;20032;-45
2021/05/25 01:15:33;;;;;;;3.90;1.10;;;12.80;70.20;;;;;;5085535;28;20312;-45
2021/05/25 01:18:00;;;;;;;2.55;0.70;;;12.80;69.70;;;;;;5087123;28;20076;-46
2021/05/25 01:20:27;;;;;;;2.95;0.80;;;12.80;69.40;;;;;;5085647;28;20039;-45
2021/05/25 01:22:53;;;;;;;4.38;0.63;;;12.80;69.90;;;;;;5085160;28;20106;-46
2021/05/25 01:25:19;;;;;;;1.77;0.73;;;12.80;69.30;;;;;;5085399;28;20037;-46
2021/05/25 01:27:58;;;;;;;1.77;0.77;;;12.80;69.40;;;;;;5084987;28;20032;-46
2021/05/25 01:30:26;;;;;;;3.45;0.80;;;12.80;69.40;;;;;;5085366;28;20095;-50
2021/05/25 01:32:52;;;;;;;4.25;1.58;;;12.70;69.70;;;;;;5086901;28;20132;-46
2021/05/25 01:35:18;;;;;;;3.63;0.70;;;12.70;69.80;;;;;;5085600;28;20040;-49
2021/05/25 01:37:43;;;;;;;1.77;0.60;;;12.70;69.20;;;;;;5085097;28;20051;-46
2021/05/25 01:40:09;;;;;;;3.50;0.70;;;12.50;68.40;;;;;;5084683;28;20336;-45
2021/05/25 01:42:36;;;;;;;2.90;0.77;;;12.40;69.00;;;;;;5083640;28;20028;-48
2021/05/25 01:45:02;;;;;;;1.88;0.82;;;12.50;69.40;;;;;;5085248;28;20044;-46
2021/05/25 01:47:28;;;;;;;1.42;0.70;;;12.50;69.40;;;;;;5083958;28;20044;-45
2021/05/25 01:50:10;;;;;;;2.45;0.60;;;12.50;69.40;;;;;;5084612;28;20044;-46
2021/05/25 01:52:36;;;;;;;2.42;0.70;;;12.50;69.40;;;;;;5083695;28;20025;-46
2021/05/25 01:55:02;;;;;;;2.20;0.70;;;12.50;69.30;;;;;;5084549;28;20029;-47
2021/05/25 01:57:27;;;;;;;2.50;0.88;;;12.40;68.80;;;;;;5083338;28;20059;-44
2021/05/25 01:59:53;;;;;;;1.77;0.68;;;12.50;69.10;;;;;;5086313;28;20024;-46
2021/05/25 02:02:18;;;;;;;2.17;0.63;;;12.50;69.40;;;;;;5083691;28;20025;-46
2021/05/25 02:04:44;;;;;;;3.83;0.70;;;12.40;69.40;;;;;;5084199;28;20052;-47
2021/05/25 02:07:09;;;;;;;1.70;0.68;;;12.40;69.10;;;;;;5084412;28;20029;-50
2021/05/25 02:09:36;;;;;;;3.33;0.50;;;12.40;69.40;;;;;;5083567;28;20074;-47
2021/05/25 02:12:01;;;;;;;2.53;0.75;;;12.30;69.40;;;;;;5086179;28;20033;-46
2021/05/25 02:14:27;;;;;;;2.55;0.75;;;12.40;69.30;;;;;;5084405;28;20405;-46
2021/05/25 02:16:52;;;;;;;2.50;0.60;;;12.40;69.50;;;;;;5084320;28;20090;-46
2021/05/25 02:19:18;;;;;;;2.13;0.70;;;12.40;69.50;;;;;;5082865;28;20087;-46
2021/05/25 02:21:43;;;;;;;2.83;0.57;;;12.30;69.40;;;;;;5082760;28;20040;-45
2021/05/25 02:24:09;;;;;;;1.35;0.65;;;12.30;69.70;;;;;;5086073;28;20032;-46
2021/05/25 02:26:34;;;;;;;4.65;1.00;;;12.20;69.60;;;;;;5084162;28;20099;-46
2021/05/25 02:29:00;;;;;;;3.83;1.00;;;12.20;69.80;;;;;;5083846;28;20029;-50
2021/05/25 02:31:25;;;;;;;2.63;0.75;;;12.20;69.30;;;;;;5083808;28;20036;-46
2021/05/25 02:33:51;;;;;;;3.40;0.90;;;12.20;69.30;;;;;;5083667;28;20029;-46
2021/05/25 02:36:16;;;;;;;5.18;1.35;;;12.20;69.10;;;;;;5085393;28;20036;-47
2021/05/25 02:38:42;;;;;;;4.50;0.70;;;12.20;69.10;;;;;;5083091;28;20029;-48
2021/05/25 02:41:07;;;;;;;5.47;1.85;;;12.20;69.20;;;;;;5084078;28;20055;-48
2021/05/25 02:43:33;;;;;;;1.73;0.80;;;12.10;69.00;;;;;;5083673;28;20037;-46
2021/05/25 02:45:59;;;;;;;1.90;0.60;;;12.20;69.00;;;;;;5083683;28;20021;-46
2021/05/25 02:48:24;;;;;;;3.10;0.77;;;12.20;69.00;;;;;;5084048;28;20029;-51
2021/05/25 02:50:50;;;;;;;3.60;1.00;;;12.10;68.80;;;;;;5083950;28;20092;-46
2021/05/25 02:53:16;;;;;;;1.58;0.70;;;12.10;69.20;;;;;;5084001;28;20037;-46
2021/05/25 02:55:41;;;;;;;3.60;0.98;;;12.00;69.50;;;;;;5082487;28;20086;-45
2021/05/25 02:58:08;;;;;;;2.78;0.98;;;12.10;69.30;;;;;;5082056;28;20088;-46
2021/05/25 03:00:38;;;;;;;4.13;0.70;;;12.10;69.20;;;;;;5081894;28;20084;-45
2021/05/25 03:03:03;;;;;;;2.92;0.85;;;12.00;68.90;;;;;;5085003;28;20028;-49
2021/05/25 03:05:29;;;;;;;1.88;0.82;;;12.00;69.20;;;;;;5083374;28;20339;-45
2021/05/25 03:07:56;;;;;;;9.07;0.75;;;12.10;69.40;;;;;;5082932;28;20163;-45
2021/05/25 03:10:24;;;;;;;1.73;0.65;;;12.10;69.10;;;;;;5082910;28;20040;-45
2021/05/25 03:12:49;;;;;;;5.95;0.88;;;12.10;69.20;;;;;;5082620;28;20043;-45
2021/05/25 03:15:17;;;;;;;2.70;0.70;;;12.10;69.30;;;;;;5084659;28;20020;-49
2021/05/25 03:17:43;;;;;;;4.10;1.08;;;12.10;69.30;;;;;;5083334;28;20078;-46
2021/05/25 03:20:09;;;;;;;4.10;0.88;;;12.10;68.80;;;;;;5082625;28;20040;-46
2021/05/25 03:22:35;;;;;;;7.65;1.50;;;12.20;69.00;;;;;;5082643;28;20071;-46
2021/05/25 03:25:01;;;;;;;3.85;0.90;;;12.20;69.00;;;;;;5082835;28;20348;-46
2021/05/25 03:27:26;;;;;;;2.20;1.10;;;12.20;68.50;;;;;;5082242;28;20086;-45
2021/05/25 03:29:52;;;;;;;1.70;1.00;;;12.10;69.10;;;;;;5084662;28;20285;-47
2021/05/25 03:32:17;;;;;;;4.50;0.80;;;12.10;69.60;;;;;;5083307;28;20032;-47
2021/05/25 03:34:43;;;;;;;4.57;0.85;;;12.10;69.20;;;;;;5082641;28;20209;-46
2021/05/25 03:37:09;;;;;;;4.88;0.80;;;12.10;68.80;;;;;;5082717;28;20371;-46
2021/05/25 03:39:34;;;;;;;4.72;0.80;;;12.00;69.20;;;;;;5082850;28;20216;-46
2021/05/25 03:42:00;;;;;;;4.03;1.20;;;12.10;69.40;;;;;;5084478;28;20062;-46
2021/05/25 03:44:26;;;;;;;2.33;0.60;;;12.10;69.60;;;;;;5082855;28;20145;-45
2021/05/25 03:46:52;;;;;;;5.18;1.23;;;12.00;69.60;;;;;;5082562;28;20036;-46
2021/05/25 03:49:17;;;;;;;2.63;0.80;;;12.00;69.80;;;;;;5082375;28;20028;-47
2021/05/25 03:51:43;;;;;;;6.78;1.10;;;12.00;69.50;;;;;;5083035;28;20086;-45
2021/05/25 03:54:11;;;;;;;1.90;0.65;;;12.00;69.20;;;;;;5084404;28;20047;-46
2021/05/25 03:56:49;;;;;;;4.30;0.95;;;12.00;69.50;;;;;;5081500;28;20099;-46
2021/05/25 03:59:14;;;;;;;3.13;1.02;;;12.10;69.60;;;;;;5082485;28;20036;-46
2021/05/25 04:01:40;;;;;;;4.03;0.90;;;12.00;69.70;;;;;;5082252;28;20094;-48
2021/05/25 04:04:05;;;;;;;2.38;0.80;;;12.10;70.10;;;;;;5081278;28;20368;-45
2021/05/25 04:06:31;;;;;;;5.43;0.90;;;12.10;70.10;;;;;;5082367;28;20338;-47
2021/05/25 04:08:56;;;;;;;5.43;1.00;;;12.10;70.00;;;;;;5084196;28;20029;-45
2021/05/25 04:11:22;;;;;;;3.00;0.90;;;12.00;70.30;;;;;;5082700;28;20201;-46
2021/05/25 04:13:48;;;;;;;3.15;0.65;;;12.10;70.30;;;;;;5081218;28;20066;-46
2021/05/25 04:16:14;;;;;;;2.33;0.80;;;12.10;70.30;;;;;;5082627;28;20074;-46
2021/05/25 04:18:40;;;;;;;5.53;0.88;;;12.20;70.40;;;;;;5082289;28;20051;-46
2021/05/25 04:21:06;;;;;;;5.50;0.95;;;12.20;70.00;;;;;;5085889;28;20204;-46
2021/05/25 04:23:31;;;;;;;4.35;0.80;;;12.20;69.60;;;;;;5086657;28;20056;-47
2021/05/25 04:25:57;;;;;;;4.15;0.85;;;12.20;69.60;;;;;;5086385;28;20385;-46
2021/05/25 04:28:22;;;;;;;5.22;1.15;;;12.30;69.60;;;;;;5086401;28;20029;-47
2021/05/25 04:30:48;;;;;;;3.40;0.88;;;12.30;69.50;;;;;;5086258;28;20197;-46
2021/05/25 04:33:14;;;;;;;5.35;1.10;;;12.30;69.40;;;;;;5087826;28;20032;-46
2021/05/25 04:35:39;;;;;;;3.05;0.85;;;12.20;69.60;;;;;;5086168;28;20044;-48
2021/05/25 04:38:05;;;;;;;7.95;1.23;;;12.20;69.60;;;;;;5086049;28;20332;-46
2021/05/25 04:40:32;;;;;;;7.13;0.95;;;12.20;69.50;;;;;;5084929;28;20094;-46
2021/05/25 04:42:57;;;;;;;4.97;1.10;;;12.20;69.00;;;;;;5086352;28;20208;-46
2021/05/25 04:45:23;;;;;;;2.30;0.90;;;12.20;69.40;;;;;;5086145;28;20036;-46
2021/05/25 04:47:49;;;;;;;5.82;1.13;;;12.20;70.00;;;;;;5086392;28;20055;-46
2021/05/25 04:50:15;;;;;;;4.18;0.90;;;12.20;69.70;;;;;;5086332;28;20378;-47
2021/05/25 04:52:41;;;;;;;5.55;0.80;;;12.20;69.90;;;;;;5086042;28;20369;-47
2021/05/25 04:55:09;;;;;;;2.97;0.98;;;12.20;69.80;;;;;;5085543;28;20052;-47
2021/05/25 04:57:34;;;;;;;3.13;1.02;;;12.30;69.70;;;;;;5085774;28;20033;-46
2021/05/25 05:00:00;;;;;;;3.97;0.80;;;12.20;69.60;;;;;;5087227;28;20036;-46
2021/05/25 05:02:25;;;;;;;9.25;1.10;;;12.20;69.90;;;;;;5086001;28;20093;-45
2021/05/25 05:04:51;;;;;;;7.90;1.23;;;12.20;69.70;;;;;;5084172;28;20047;-46
2021/05/25 05:07:16;;;;;;;5.18;1.10;;;12.20;69.70;;;;;;5084539;28;20205;-47
2021/05/25 05:09:42;;;;;;;5.60;1.00;;;12.20;69.10;;;;;;5085353;28;20040;-46
2021/05/25 05:12:07;;;;;;;5.30;0.90;;;12.20;69.20;;;;;;5087058;28;20036;-47
2021/05/25 05:14:33;;;;;;;2.35;0.82;;;12.20;69.10;;;;;;5085746;28;20037;-47
2021/05/25 05:16:59;;;;;;;3.33;0.88;;;12.20;69.40;;;;;;5085716;28;20040;-46
2021/05/25 05:19:24;;;;;;;4.20;0.95;;;12.20;68.90;;;;;;5085119;28;20082;-46
2021/05/25 05:21:50;;;;;;;6.63;1.05;;;12.20;68.70;;;;;;5083942;28;20048;-48
2021/05/25 05:24:15;;;;;;;1.73;0.80;;;12.20;68.60;;;;;;5087293;28;20063;-46
2021/05/25 05:26:41;;;;;;;5.03;0.90;;;12.20;68.90;;;;;;5085486;28;20067;-47
2021/05/25 05:29:06;;;;;;;6.50;1.17;;;12.20;69.00;;;;;;5084790;28;20143;-46
2021/05/25 05:31:32;;;;;;;4.68;1.33;;;12.20;68.10;;;;;;5084754;28;20040;-47
2021/05/25 05:33:57;;;;;;;4.47;1.17;;;12.20;68.00;;;;;;5084971;28;20033;-46
2021/05/25 05:36:23;;;;;;;8.43;1.10;;;12.10;67.40;;;;;;5084804;28;20021;-46
2021/05/25 05:38:48;;;;;;;10.00;1.10;;;12.00;67.20;;;;;;5086266;28;20028;-46
2021/05/25 05:41:14;;;;;;;3.40;0.85;;;12.10;66.80;;;;;;5085365;28;20041;-45
2021/05/25 05:43:40;;;;;;;7.00;1.02;;;12.00;66.40;;;;;;5084734;28;20044;-49
2021/05/25 05:46:05;;;;;;;4.25;1.38;;;12.10;66.10;;;;;;5084822;28;20032;-47
2021/05/25 05:48:31;;;;;;;3.53;0.98;;;12.10;66.20;;;;;;5084554;28;20028;-46
2021/05/25 05:50:57;;;;;;;4.93;1.13;;;12.10;66.20;;;;;;5086748;28;20039;-47
2021/05/25 05:53:22;;;;;;;5.15;1.77;;;12.10;66.10;;;;;;5085053;28;20029;-50
2021/05/25 05:55:48;;;;;;;4.38;1.27;;;12.10;65.30;;;;;;5084706;28;20052;-46
2021/05/25 05:58:14;;;;;;;3.33;0.93;;;12.20;65.80;;;;;;5084465;28;20043;-45
2021/05/25 06:00:41;;;;;;;2.28;0.77;;;12.20;65.70;;;;;;5084687;28;20050;-47
2021/05/25 06:03:08;;;;;;;8.85;1.48;;;12.10;64.70;;;;;;5085108;28;20036;-46
2021/05/25 06:05:35;;;;;;;5.53;1.23;;;12.10;65.00;;;;;;5083889;28;20112;-46
2021/05/25 06:08:01;;;;;;;3.35;0.75;;;12.00;63.50;;;;;;5084713;28;20041;-46
2021/05/25 06:10:29;;;;;;;3.40;0.93;;;12.10;64.00;;;;;;5084848;28;20041;-46
2021/05/25 06:12:55;;;;;;;5.93;2.20;;;12.10;64.00;;;;;;5084474;28;20017;-47
2021/05/25 06:15:20;;;;;;;5.50;1.40;;;12.10;64.00;;;;;;5085727;28;20036;-45
2021/05/25 06:17:46;;;;;;;4.03;0.80;;;12.10;63.00;;;;;;5084617;28;20316;-47
2021/05/25 06:20:12;;;;;;;5.25;1.30;;;12.10;62.80;;;;;;5084382;28;20040;-47
2021/05/25 06:22:38;;;;;;;5.47;0.90;;;12.00;62.80;;;;;;5084036;28;20048;-45
2021/05/25 06:25:06;;;;;;;3.25;0.75;;;12.00;62.40;;;;;;5084012;28;20062;-47
2021/05/25 06:27:31;;;;;;;6.65;1.25;;;12.10;62.00;;;;;;5082616;28;20036;-45
2021/05/25 06:29:57;;;;;;;6.97;1.23;;;12.10;62.20;;;;;;5084474;28;20052;-47
2021/05/25 06:32:22;;;;;;;4.18;1.33;;;12.10;61.90;;;;;;5084198;28;20343;-47
2021/05/25 06:34:48;;;;;;;7.63;1.00;;;12.10;60.90;;;;;;5084042;28;20036;-46
2021/05/25 06:37:14;;;;;;;7.85;1.20;;;12.10;60.60;;;;;;5083786;28;20055;-46
2021/05/25 06:39:39;;;;;;;5.35;1.27;;;12.00;61.70;;;;;;5083602;28;20028;-45
2021/05/25 06:42:05;;;;;;;6.05;1.10;;;11.90;61.70;;;;;;5085578;28;20237;-46
2021/05/25 06:44:31;;;;;;;7.13;1.02;;;12.00;61.90;;;;;;5083209;28;20032;-45
2021/05/25 06:46:58;;;;;;;6.20;1.35;;;12.10;61.80;;;;;;5083746;28;20033;-45
2021/05/25 06:49:24;;;;;;;5.70;1.20;;;12.10;61.50;;;;;;5083485;28;20325;-46
2021/05/25 06:51:49;;;;;;;10.48;1.45;;;12.10;61.80;;;;;;5083563;28;20088;-46
2021/05/25 06:54:14;;;;;;;7.05;1.17;;;12.20;61.40;;;;;;5085044;28;20036;-46
2021/05/25 06:56:40;;;;;;;3.03;0.80;;;12.20;60.60;;;;;;5083393;28;20045;-46
2021/05/25 06:59:05;;;;;;;7.10;1.10;;;12.20;60.40;;;;;;5083433;28;20324;-46
2021/05/25 07:01:31;;;;;;;6.07;0.98;;;12.20;61.00;;;;;;5083227;28;20052;-45
2021/05/25 07:03:57;;;;;;;4.03;1.40;;;12.20;61.50;;;;;;5083103;28;20340;-47
2021/05/25 07:06:23;;;;;;;3.92;0.80;;;12.20;60.10;;;;;;5083274;28;20129;-43
2021/05/25 07:08:48;;;;;;;7.28;1.10;;;12.30;60.30;;;;;;5084983;28;20029;-46
2021/05/25 07:11:14;;;;;;;5.97;1.05;;;12.30;60.80;;;;;;5083266;28;20043;-46
2021/05/25 07:13:39;;;;;;;4.13;0.90;;;12.40;60.80;;;;;;5083057;28;20216;-46
2021/05/25 07:16:06;;;;;;;7.03;1.27;;;12.40;61.20;;;;;;5082928;28;20040;-49
2021/05/25 07:18:31;;;;;;;2.80;0.95;;;12.40;61.30;;;;;;5083000;28;20112;-47
2021/05/25 07:20:57;;;;;;;5.88;1.00;;;12.60;61.70;;;;;;5084252;28;20052;-46
2021/05/25 07:23:22;;;;;;;4.53;0.90;;;12.60;60.50;;;;;;5082045;28;20082;-46
2021/05/25 07:25:48;;;;;;;6.05;1.15;;;12.60;59.40;;;;;;5082778;28;20035;-46
2021/05/25 07:28:13;;;;;;;7.82;1.10;;;12.60;59.10;;;;;;5083003;28;20035;-45
2021/05/25 07:30:39;;;;;;;4.28;1.05;;;12.50;58.00;;;;;;5083269;28;20024;-45
2021/05/25 07:33:05;;;;;;;4.35;1.00;;;12.40;56.40;;;;;;5084477;28;20032;-45
2021/05/25 07:35:30;;;;;;;11.75;1.33;;;12.40;55.80;;;;;;5083126;28;20217;-47
2021/05/25 07:37:56;;;;;;;7.05;1.13;;;12.40;56.20;;;;;;5083327;28;20066;-46
2021/05/25 07:40:21;;;;;;;7.20;1.02;;;12.40;57.00;;;;;;5082586;28;20033;-46
2021/05/25 07:42:47;;;;;;;4.80;1.00;;;12.30;56.90;;;;;;5082560;28;20054;-45
2021/05/25 07:45:14;;;;;;;6.22;1.00;;;12.50;56.80;;;;;;5084054;28;20040;-46
2021/05/25 07:47:40;;;;;;;2.55;0.70;;;12.50;57.00;;;;;;5082858;28;20037;-46
2021/05/25 07:50:15;;;;;;;5.05;1.05;;;12.60;56.60;;;;;;5082964;28;20237;-48
2021/05/25 07:53:00;;;;;;;2.67;0.90;;;12.60;56.50;;;;;;5082835;28;20039;-45
2021/05/25 07:55:27;;;;;;;4.68;0.82;;;12.60;55.90;;;;;;5080974;28;20100;-45
2021/05/25 07:57:52;;;;;;;5.63;0.85;;;12.60;55.00;;;;;;5082572;28;20029;-45
2021/05/25 08:00:18;;;;;;;4.43;0.80;;;12.50;54.40;;;;;;5084588;28;20055;-45
2021/05/25 08:02:44;;;;;;;3.47;0.70;;;12.40;53.90;;;;;;5082472;28;20036;-45
2021/05/25 08:05:10;;;;;;;3.17;0.80;;;12.40;54.20;;;;;;5082648;28;20044;-45
2021/05/25 08:07:36;;;;;;;4.30;0.80;;;12.40;53.40;;;;;;5082456;28;20038;-45
2021/05/25 08:10:03;;;;;;;3.28;0.70;;;12.60;54.40;;;;;;5082432;28;20051;-47
2021/05/25 08:12:29;;;;;;;4.45;0.82;;;12.70;55.30;;;;;;5082258;28;20037;-44
2021/05/25 08:14:55;;;;;;;6.13;0.95;;;12.80;54.50;;;;;;5084232;28;20133;-46
2021/05/25 08:20:14;;;;;;;6.20;1.23;;;13.00;54.40;;;;;;5082744;28;20056;-47
2021/05/25 08:22:39;;;;;;;6.00;0.90;;;13.10;52.80;;;;;;5082291;28;20052;-45
2021/05/25 08:25:06;;;;;;;4.57;0.80;;;13.10;51.10;;;;;;5082179;28;20363;-48
2021/05/25 08:27:31;;;;;;;3.10;0.70;;;13.20;52.60;;;;;;5082000;28;20262;-47
2021/05/25 08:29:57;;;;;;;1.98;1.08;;;13.20;53.20;;;;;;5084117;28;20021;-45
2021/05/25 08:32:22;;;;;;;5.93;1.02;;;13.30;52.80;;;;;;5082625;28;20094;-46
2021/05/25 08:34:48;;;;;;;4.38;0.90;;;13.30;52.40;;;;;;5081993;28;20082;-45
2021/05/25 08:37:13;;;;;;;3.78;0.65;;;13.40;53.30;;;;;;5081918;28;20099;-45
2021/05/25 08:39:39;;;;;;;3.08;0.73;;;13.40;52.60;;;;;;5082181;28;20035;-46
2021/05/25 08:42:05;;;;;;;2.90;0.90;;;13.40;52.10;;;;;;5083978;28;20056;-45
2021/05/25 08:44:30;;;;;;;3.55;0.93;;;13.50;51.80;;;;;;5082305;28;20321;-44
2021/05/25 08:46:56;;;;;;;7.88;1.00;;;13.50;51.50;;;;;;5082057;28;20036;-45
2021/05/25 08:49:21;;;;;;;3.70;0.70;;;13.50;50.90;;;;;;5081971;28;20040;-46
2021/05/25 08:51:47;;;;;;;4.82;0.88;;;13.60;50.90;;;;;;5081803;28;20028;-46
2021/05/25 08:54:12;;;;;;;4.05;0.80;;;13.80;51.00;;;;;;5082521;28;20227;-45
2021/05/25 08:56:38;;;;;;;2.95;0.80;;;13.80;51.80;;;;;;5080898;28;20103;-45
2021/05/25 08:59:03;;;;;;;2.70;0.82;;;14.00;51.00;;;;;;5081952;28;20336;-45
2021/05/25 09:01:29;;;;;;;4.70;0.90;;;14.10;51.40;;;;;;5081697;28;20043;-47
2021/05/25 09:03:59;;;;;;;2.70;0.70;;;14.30;51.10;;;;;;5081766;28;20036;-46
2021/05/25 09:06:41;;;;;;;3.28;1.27;;;14.40;49.30;;;;;;5082645;28;20029;-46
2021/05/25 09:09:11;;;;;;;5.63;0.90;;;14.60;49.50;;;;;;5087038;28;20327;-45
2021/05/25 09:12:12;;;;;;;5.82;0.90;;;14.60;48.00;;;;;;5086167;28;20221;-46
2021/05/25 09:14:50;;;;;;;4.65;0.90;;;14.50;47.20;;;;;;5043994;28;20292;-46
2021/05/25 09:17:18;;;;;;;2.95;0.68;;;14.50;47.40;;;;;;5080854;28;20324;-46
2021/05/25 09:19:50;;;;;;;2.90;0.80;;;14.50;47.80;;;;;;5085251;28;20340;-47
2021/05/25 09:22:40;;;;;;;2.78;0.68;;;14.60;47.60;;;;;;5085387;28;20032;-46
2021/05/25 09:25:08;;;;;;;3.65;0.70;;;14.60;47.20;;;;;;5084244;28;20430;-46
2021/05/25 09:27:37;;;;;;;4.35;0.90;;;14.50;47.20;;;;;;5085395;28;20098;-47
2021/05/25 09:30:10;;;;;;;1.67;0.50;;;14.60;47.00;;;;;;5087023;28;20321;-46
2021/05/25 09:32:49;;;;;;;3.90;0.70;;;14.70;44.10;;;;;;5085357;28;20085;-46
2021/05/25 09:35:16;;;;;;;3.60;0.75;;;14.80;45.30;;;;;;5083867;28;20059;-45
2021/05/25 09:37:43;;;;;;;6.15;1.10;;;14.80;44.90;;;;;;5085322;28;20029;-46
2021/05/25 09:40:09;;;;;;;4.20;0.82;;;14.70;43.60;;;;;;5084821;28;20118;-45
2021/05/25 09:42:34;;;;;;;5.05;0.77;;;14.80;45.00;;;;;;5084842;28;20028;-45
2021/05/25 09:45:12;;;;;;;3.10;0.88;;;14.90;44.40;;;;;;5086447;28;20350;-45
2021/05/25 09:47:51;;;;;;;1.75;0.55;;;14.90;43.80;;;;;;5085285;28;20419;-46
2021/05/25 09:50:17;;;;;;;7.32;4.28;;;15.10;44.20;;;;;;5083615;28;20109;-45
2021/05/25 09:53:08;;;;;;;2.45;1.00;;;15.10;43.30;;;;;;5083609;28;20028;-45
2021/05/25 09:55:49;;;;;;;;;;;15.20;42.40;;;;;;5084870;28;20033;-45
2021/05/25 09:58:15;;;;;;;4.33;0.80;;;15.10;41.40;;;;;;5084459;28;19911;-46
2021/05/25 10:00:43;;;;;;;4.05;0.73;;;15.10;42.60;;;;;;5084335;28;20096;-45
2021/05/25 10:03:19;;;;;;;2.25;0.68;;;15.10;42.70;;;;;;5085966;28;20260;-45
2021/05/25 10:05:54;;;;;;;3.80;0.70;;;15.10;43.50;;;;;;5085017;28;20220;-45
2021/05/25 10:08:23;;;;;;;5.13;0.70;;;15.10;42.30;;;;;;5086033;28;20261;-46
2021/05/25 10:10:49;;;;;;;4.13;0.88;;;15.20;43.10;;;;;;5084366;28;20037;-44
2021/05/25 10:13:15;;;;;;;2.97;0.60;;;15.10;43.60;;;;;;5084401;28;20259;-45
2021/05/25 10:15:42;;;;;;;5.95;1.65;;;15.10;43.40;;;;;;5082963;28;20039;-45
2021/05/25 10:18:27;;;;;;;2.92;0.82;;;15.10;44.30;;;;;;5084998;28;20036;-46
2021/05/25 10:20:53;;;;;;;1.98;0.60;;;15.20;44.30;;;;;;5084697;28;20048;-46
2021/05/25 10:23:19;;;;;;;3.22;0.70;;;15.30;44.80;;;;;;5082931;28;20063;-45
2021/05/25 10:25:44;;;;;;;4.95;0.95;;;15.40;44.40;;;;;;5083930;28;20067;-46
2021/05/25 10:28:12;;;;;;;4.72;0.60;;;15.60;45.40;;;;;;5084024;28;20364;-46
2021/05/25 10:30:39;;;;;;;3.00;0.60;;;15.70;43.90;;;;;;5082622;28;20033;-46
2021/05/25 10:33:05;;;;;;;1.02;0.50;;;15.70;43.80;;;;;;5085748;28;20039;-46
2021/05/25 10:35:50;;;;;;;4.40;0.60;;;15.80;43.20;;;;;;5084103;28;20037;-46
2021/05/25 10:38:16;;;;;;;1.88;0.70;;;15.90;42.20;;;;;;5084184;28;20095;-46
2021/05/25 10:40:53;;;;;;;2.17;0.45;;;16.00;43.00;;;;;;5082743;28;20040;-47
2021/05/25 10:43:38;;;;;;;3.58;0.60;;;16.10;42.60;;;;;;5082810;28;20033;-47
2021/05/25 10:46:10;;;;;;;2.75;0.68;;;16.10;42.40;;;;;;5083571;28;20033;-47
2021/05/25 10:49:10;;;;;;;3.60;0.63;;;16.10;42.70;;;;;;5083722;28;20035;-46
2021/05/25 10:51:45;;;;;;;2.65;0.52;;;16.30;43.60;;;;;;5083389;28;20033;-48
2021/05/25 10:54:29;;;;;;;5.30;1.00;;;16.30;42.60;;;;;;5083814;28;20036;-46
2021/05/25 10:56:55;;;;;;;4.07;1.17;;;16.30;42.80;;;;;;5084326;28;20240;-45
2021/05/25 10:59:21;;;;;;;6.82;0.80;;;16.30;43.40;;;;;;5083211;28;20047;-46
2021/05/25 11:01:57;;;;;;;2.88;0.60;;;16.30;43.60;;;;;;5083139;28;20037;-45
2021/05/25 11:04:23;;;;;;;1.77;0.60;;;16.30;42.50;;;;;;5083317;28;20108;-46
2021/05/25 11:06:49;;;;;;;4.43;0.80;;;16.50;43.60;;;;;;5065325;28;20032;-46
2021/05/25 11:09:28;;;;;;;2.17;0.85;;;16.40;42.70;;;;;;5083966;28;20354;-45
2021/05/25 11:12:14;;;;;;;4.57;0.90;;;16.50;41.50;;;;;;5083857;28;20073;-45
2021/05/25 11:15:15;;;;;;;6.00;1.23;;;16.60;41.30;;;;;;5083471;28;20037;-47
2021/05/25 11:17:40;;;;;;;4.18;0.90;;;16.60;40.90;;;;;;5083341;28;20028;-46
2021/05/25 11:20:28;;;;;;;5.55;0.75;;;16.70;40.20;;;;;;5082965;28;20043;-46
2021/05/25 11:22:53;;;;;;;3.25;0.90;;;16.80;40.60;;;;;;5082955;28;20044;-45
2021/05/25 11:25:38;;;;;;;3.45;1.00;;;16.70;40.50;;;;;;5083009;28;20033;-46
2021/05/25 11:28:04;;;;;;;4.70;0.98;;;16.80;40.40;;;;;;5082266;28;20043;-46
2021/05/25 11:30:31;;;;;;;5.53;0.73;;;16.80;40.10;;;;;;5082452;28;20033;-45
2021/05/25 11:32:56;;;;;;;2.30;0.60;;;16.70;39.40;;;;;;5084519;28;20032;-45
2021/05/25 11:35:23;;;;;;;4.05;0.80;;;16.80;40.00;;;;;;5082146;28;20082;-44
2021/05/25 11:37:54;;;;;;;6.10;1.00;;;16.80;39.80;;;;;;5082652;28;20037;-45
2021/05/25 11:40:24;;;;;;;5.72;1.90;;;16.90;40.60;;;;;;5081519;28;20032;-45
2021/05/25 11:42:50;;;;;;;2.80;0.77;;;17.10;40.80;;;;;;5082446;28;20039;-44
2021/05/25 11:45:17;;;;;;;6.03;0.95;;;17.00;38.80;;;;;;5066688;28;20036;-43
2021/05/25 11:47:43;;;;;;;3.10;0.70;;;16.90;37.40;;;;;;5083190;28;20321;-45
2021/05/25 11:50:11;;;;;;;5.38;0.70;;;17.00;36.00;;;;;;5082247;28;20116;-45
2021/05/25 11:52:39;;;;;;;4.45;0.80;;;17.10;37.90;;;;;;5082375;28;20341;-43
2021/05/25 11:55:09;;;;;;;2.80;0.80;;;17.20;37.30;;;;;;5083161;28;20108;-44
2021/05/25 11:57:43;;;;;;;4.43;0.80;;;17.30;38.70;;;;;;5083273;28;20024;-43
2021/05/25 12:00:16;;;;;;;2.60;0.57;;;17.40;38.40;;;;;;5083910;28;20030;-43
2021/05/25 12:02:43;;;;;;;1.85;0.65;;;17.50;38.30;;;;;;5082375;28;20032;-44
2021/05/25 12:05:16;;;;;;;3.45;0.70;;;17.70;37.20;;;;;;5082648;28;20040;-44
2021/05/25 12:07:50;;;;;;;3.65;0.80;;;17.70;37.20;;;;;;5082330;28;20062;-44
2021/05/25 12:10:17;;;;;;;3.90;0.70;;;17.80;37.10;;;;;;5081223;28;20025;-45
2021/05/25 12:12:44;;;;;;;2.80;0.80;;;17.70;36.40;;;;;;5080918;28;20093;-51
2021/05/25 12:15:14;;;;;;;3.10;0.80;;;17.70;36.80;;;;;;5085736;28;20051;-51
2021/05/25 12:17:41;;;;;;;4.80;0.80;;;17.60;37.40;;;;;;5082325;28;20048;-48
2021/05/25 12:20:07;;;;;;;3.40;0.70;;;17.60;38.20;;;;;;5082179;28;20082;-48
2021/05/25 12:22:37;;;;;;;2.55;0.60;;;17.70;38.00;;;;;;5080898;28;20056;-48
2021/05/25 12:25:23;;;;;;;2.33;0.60;;;17.70;38.10;;;;;;5082091;28;20037;-48
2021/05/25 12:28:13;;;;;;;4.28;0.70;;;17.80;37.80;;;;;;5082012;28;20036;-49
2021/05/25 12:30:43;;;;;;;5.18;0.70;;;17.80;37.10;;;;;;5082023;28;20048;-49
2021/05/25 12:33:15;;;;;;;4.93;0.75;;;17.50;36.40;;;;;;5083801;28;20040;-49
2021/05/25 12:35:41;;;;;;;4.18;0.80;;;17.60;39.00;;;;;;5082578;28;20056;-48
2021/05/25 12:38:09;;;;;;;3.17;0.80;;;17.60;38.60;;;;;;5080822;28;20047;-45
2021/05/25 12:40:35;;;;;;;4.18;0.93;;;17.60;39.10;;;;;;5082120;28;20039;-47
2021/05/25 12:43:33;;;;;;;2.83;0.60;;;17.60;38.10;;;;;;5085393;28;20036;-44
2021/05/25 12:46:09;;;;;;;3.47;0.57;;;17.70;38.00;;;;;;5086159;28;20060;-44
2021/05/25 12:48:39;;;;;;;2.65;0.75;;;17.70;37.20;;;;;;5085738;28;20055;-44
2021/05/25 12:51:05;;;;;;;1.15;0.50;;;17.60;37.00;;;;;;5087976;28;20084;-43
2021/05/25 12:53:31;;;;;;;2.72;0.60;;;17.60;37.00;;;;;;5086010;28;20039;-45
2021/05/25 12:55:58;;;;;;;3.47;0.55;;;17.50;37.30;;;;;;5084491;28;20052;-49